Airfield :
LOGIN :

Register | Disclaimer

   EN    FR    IT 

 










Legend :    VFR   Marginal VFR   IFR   Intensive IFR   Very Intensive IFR
Visi :
Ceiling :
>= 8 km
>= 3000ft
5 to 8 km
1000 to 3000 ft
1500m to 5 km
500 to 1000 ft
800 to 1500m
200 to 500 ft
< 800m
< 200 ft
Symbols :   Thunderstorms  Fog  Heavy snow  Heavy precipitations  Wind > 20 kt
SIGMETs :     Misc.  Thunderstorms  Icing  Turbulence  Mountain Waves  Volcanic Ashes






- Airport Elevation : 53 ft
- IATA code : AGP


LEMG - Malaga

CURRENT METAR :
  • 211800Z 16003KT 9999 FEW030 SCT080 19/16 Q1013 NOSIG

EXPIRED METARs :
  • 211730Z 10003KT 030V160 9999 FEW030 SCT080 20/16 Q1012 NOSIG
  • 211700Z 18005KT 150V240 9999 FEW030 SCT080 19/16 Q1012 NOSIG
  • 211630Z 15005KT 9999 SCT030 BKN080 20/16 Q1012 NOSIG
  • 211600Z 15005KT 120V190 9999 SCT030 BKN080 20/16 Q1012 NOSIG
  • 211530Z 15004KT 9999 FEW025 SCT040 BKN080 20/16 Q1012 NOSIG
  • 211500Z 15006KT 110V170 9999 FEW025 SCT040 BKN080 20/16 Q1012 NOSIG

TAF TAF LEMG
Valid from the 21 at 18:00 until the 22 at 18:00 UTC


211700Z 2118/2218 14006KT 9999 SCT030 TX22/2213Z TN15/2205Z
PROB40
TEMPO 2202/2208 BKN012
PROB40
TEMPO 2208/2218 4000 SHRA BKN014 SCT020TCU



MET'MAP, your aeronautical weather chart ! - Copyright ORBIFLY December 2007 - Disclaimer

ORBIFLY MET'MAP TEAM :

Programming & Development : Alexandra Zaïnal
Concept & original design : Baudouin d'Aumeries
Assistance for programming : Marc-Olivier Méhu
Technical & hardware support : Manuel Goepfert

Contact : metmap@orbifly.com




SOURCES & CREDITS :

   NOAA